createdAt,value
2018-08-14T00:01:25.097Z,91.20
2018-08-14T00:03:55.754Z,91.79
2018-08-14T00:06:26.918Z,91.60
2018-08-14T00:08:58.872Z,90.79
2018-08-14T00:11:30.207Z,90.15
2018-08-14T00:14:01.285Z,91.67
2018-08-14T00:16:33.282Z,90.73
2018-08-14T00:19:04.580Z,90.75
2018-08-14T00:21:34.804Z,90.15
2018-08-14T00:24:05.203Z,90.93
2018-08-14T00:26:37.436Z,90.44
2018-08-14T00:29:07.958Z,89.83
2018-08-14T00:31:40.836Z,90.19
2018-08-14T00:34:11.570Z,89.89
2018-08-14T00:36:42.554Z,91.33
2018-08-14T00:39:12.750Z,90.48
2018-08-14T00:41:42.894Z,90.85
2018-08-14T00:44:13.698Z,89.92
2018-08-14T00:46:44.658Z,90.06
2018-08-14T00:49:15.146Z,90.57
2018-08-14T00:51:47.018Z,90.98
2018-08-14T00:54:18.987Z,90.40
2018-08-14T00:56:50.542Z,91.10
2018-08-14T00:59:20.738Z,90.50
2018-08-14T01:01:50.925Z,91.20
2018-08-14T01:04:21.598Z,91.39
2018-08-14T01:06:53.708Z,91.49
2018-08-14T01:09:24.622Z,90.95
2018-08-14T01:11:55.946Z,90.25
2018-08-14T01:14:27.120Z,90.62
2018-08-14T01:16:58.742Z,89.68
2018-08-14T01:19:29.426Z,90.12
2018-08-14T01:21:59.574Z,89.76
2018-08-14T01:24:30.000Z,89.10
2018-08-14T01:27:02.122Z,89.17
2018-08-14T01:29:33.398Z,89.81
2018-08-14T01:32:04.226Z,89.21
2018-08-14T01:34:38.577Z,90.11
2018-08-14T01:37:11.100Z,89.28
2018-08-14T01:39:41.284Z,90.18
2018-08-14T01:42:18.927Z,89.68
2018-08-14T01:44:50.534Z,89.24
2018-08-14T01:47:21.720Z,89.09
2018-08-14T01:49:52.519Z,89.21
2018-08-14T01:52:24.001Z,90.16
2018-08-14T01:54:55.786Z,89.64
2018-08-14T01:57:26.600Z,89.82
2018-08-14T01:59:57.186Z,89.42
2018-08-14T02:02:28.722Z,90.69
2018-08-14T02:04:59.379Z,90.25
2018-08-14T02:07:31.303Z,91.28
2018-08-14T02:10:01.949Z,90.76
2018-08-14T02:12:33.694Z,91.54
2018-08-14T02:15:04.442Z,92.02
2018-08-14T02:17:34.959Z,91.87
2018-08-14T02:20:06.511Z,91.88
2018-08-14T02:22:37.624Z,91.35
2018-08-14T02:25:08.917Z,91.90
2018-08-14T02:27:39.548Z,91.73
2018-08-14T02:30:10.473Z,91.99
2018-08-14T02:32:40.566Z,91.59
2018-08-14T02:35:11.820Z,91.98
2018-08-14T02:37:42.749Z,92.05
2018-08-14T02:40:18.275Z,92.17
2018-08-14T02:42:49.897Z,92.24
2018-08-14T02:45:22.409Z,91.23
2018-08-14T02:47:52.801Z,92.22
2018-08-14T02:50:23.403Z,91.54
2018-08-14T02:52:55.500Z,91.00
2018-08-14T02:55:27.059Z,91.32
2018-08-14T02:57:58.025Z,92.04
2018-08-14T03:00:29.822Z,91.08
2018-08-14T03:03:01.709Z,91.32
2018-08-14T03:05:35.139Z,92.22
2018-08-14T03:08:06.493Z,91.19
2018-08-14T03:10:37.262Z,91.68
2018-08-14T03:13:07.398Z,92.08
2018-08-14T03:15:37.492Z,91.47
2018-08-14T03:18:08.729Z,92.34
2018-08-14T03:20:39.939Z,92.31
2018-08-14T03:23:12.088Z,92.36
2018-08-14T03:25:42.258Z,92.42
2018-08-14T03:28:12.989Z,92.78
2018-08-14T03:30:44.753Z,93.02
2018-08-14T03:33:15.754Z,92.85
2018-08-14T03:35:47.460Z,92.74
2018-08-14T03:38:17.615Z,92.13
2018-08-14T03:40:48.409Z,92.78
2018-08-14T03:43:19.783Z,92.52
2018-08-14T03:45:52.664Z,92.64
2018-08-14T03:48:22.820Z,92.07
2018-08-14T03:50:53.846Z,92.22
2018-08-14T03:53:25.288Z,92.16
2018-08-14T03:55:55.558Z,91.01
2018-08-14T03:58:26.279Z,90.51
2018-08-14T04:00:57.122Z,90.62
2018-08-14T04:03:27.814Z,91.50
2018-08-14T04:05:58.022Z,91.23
2018-08-14T04:08:27.982Z,90.46
2018-08-14T04:10:59.634Z,90.04
2018-08-14T04:13:30.466Z,89.59
2018-08-14T04:16:00.919Z,90.43
2018-08-14T04:18:31.050Z,90.24
2018-08-14T04:21:01.854Z,89.65
2018-08-14T04:23:32.381Z,90.10
2018-08-14T04:26:03.232Z,89.34
2018-08-14T04:28:34.328Z,89.94
2018-08-14T04:31:10.362Z,90.02
2018-08-14T04:33:41.741Z,89.36
2018-08-14T04:36:13.281Z,89.08
2018-08-14T04:38:44.329Z,89.69
2018-08-14T04:41:16.204Z,89.17
2018-08-14T04:43:46.976Z,89.69
2018-08-14T04:46:20.950Z,89.35
2018-08-14T04:48:52.599Z,88.64
2018-08-14T04:51:24.499Z,89.01
2018-08-14T04:53:55.279Z,88.92
2018-08-14T04:56:28.005Z,88.23
2018-08-14T04:59:01.372Z,88.16
2018-08-14T05:01:32.382Z,88.43
2018-08-14T05:04:04.624Z,88.56
2018-08-14T05:06:36.037Z,88.17
2018-08-14T05:09:13.150Z,87.59
2018-08-14T05:11:44.598Z,88.44
2018-08-14T05:14:16.324Z,88.39
2018-08-14T05:16:47.315Z,87.10
2018-08-14T05:19:17.824Z,87.30
2018-08-14T05:21:50.347Z,87.18
2018-08-14T05:24:21.321Z,88.27
2018-08-14T05:26:52.894Z,87.29
2018-08-14T05:29:24.813Z,87.80
2018-08-14T05:31:56.993Z,87.54
2018-08-14T05:34:27.435Z,87.12
2018-08-14T05:36:58.458Z,86.74
2018-08-14T05:39:28.494Z,86.76
2018-08-14T05:41:58.719Z,86.53
2018-08-14T05:44:28.785Z,86.85
2018-08-14T05:46:59.904Z,86.97
2018-08-14T05:49:31.076Z,86.15
2018-08-14T05:52:02.914Z,84.75
2018-08-14T05:54:33.059Z,83.90
2018-08-14T05:57:04.597Z,81.35
2018-08-14T05:59:34.734Z,80.46
2018-08-14T06:02:05.215Z,81.54
2018-08-14T06:04:35.394Z,82.47
2018-08-14T06:07:06.139Z,79.84
2018-08-14T06:09:37.271Z,78.89
2018-08-14T06:12:08.741Z,79.63
2018-08-14T06:14:39.027Z,81.21
2018-08-14T06:17:09.552Z,80.69
2018-08-14T06:19:39.729Z,79.87
2018-08-14T06:22:10.177Z,79.36
2018-08-14T06:24:41.784Z,78.42
2018-08-14T06:27:13.701Z,78.07
2018-08-14T06:29:44.929Z,75.46
2018-08-14T06:32:16.112Z,73.01
2018-08-14T06:34:46.652Z,72.17
2018-08-14T06:37:17.766Z,70.84
2018-08-14T06:39:48.289Z,68.09
2018-08-14T06:42:18.835Z,66.04
2018-08-14T06:44:49.423Z,65.99
2018-08-14T06:47:20.379Z,61.63
2018-08-14T06:49:51.800Z,64.55
2018-08-14T06:52:23.172Z,63.09
2018-08-14T06:54:54.711Z,58.98
2018-08-14T06:57:27.390Z,57.09
2018-08-14T06:59:57.921Z,64.04
2018-08-14T07:02:29.409Z,61.75
2018-08-14T07:05:01.336Z,64.85
2018-08-14T07:07:33.875Z,65.99
2018-08-14T07:10:06.753Z,58.37
2018-08-14T07:12:39.161Z,61.03
2018-08-14T07:15:19.875Z,57.72
2018-08-14T07:17:51.463Z,52.54
2018-08-14T07:20:21.655Z,51.62
2018-08-14T07:22:52.873Z,55.60
2018-08-14T07:25:23.245Z,60.50
2018-08-14T07:27:55.670Z,62.53
2018-08-14T07:30:27.134Z,61.09
2018-08-14T07:32:57.301Z,59.11
2018-08-14T07:35:27.539Z,56.92
2018-08-14T07:37:58.563Z,55.34
2018-08-14T07:40:29.919Z,58.00
2018-08-14T07:43:00.211Z,54.67
2018-08-14T07:45:34.158Z,56.74
2018-08-14T07:48:05.553Z,55.80
2018-08-14T07:50:38.861Z,53.21
2018-08-14T07:53:09.871Z,57.97
2018-08-14T07:55:41.448Z,59.40
2018-08-14T07:58:12.035Z,60.69
2018-08-14T08:00:42.546Z,60.04
2018-08-14T08:03:13.738Z,58.22
2018-08-14T08:05:44.221Z,57.15
2018-08-14T08:08:14.956Z,55.39
2018-08-14T08:10:45.751Z,52.62
2018-08-14T08:13:16.382Z,53.54
2018-08-14T08:15:47.718Z,53.99
2018-08-14T08:18:18.108Z,56.13
2018-08-14T08:20:49.617Z,57.26
2018-08-14T08:23:21.918Z,57.95
2018-08-14T08:25:52.483Z,60.16
2018-08-14T08:28:23.506Z,60.07
2018-08-14T08:30:53.861Z,57.52
2018-08-14T08:33:24.805Z,56.49
2018-08-14T08:35:57.084Z,55.83
2018-08-14T08:38:27.583Z,53.65
2018-08-14T08:40:58.712Z,50.63
2018-08-14T08:43:29.251Z,48.89
2018-08-14T08:46:00.020Z,50.30
2018-08-14T08:48:31.281Z,51.15
2018-08-14T08:51:01.796Z,51.60
2018-08-14T08:53:36.585Z,53.24
2018-08-14T08:56:08.032Z,55.18
2018-08-14T08:58:39.114Z,56.61
2018-08-14T09:01:09.349Z,56.53
2018-08-14T09:03:39.493Z,55.88
2018-08-14T09:06:10.051Z,54.44
2018-08-14T09:08:41.714Z,54.04
2018-08-14T09:11:12.914Z,52.90
2018-08-14T09:13:42.992Z,46.98
2018-08-14T09:16:15.372Z,48.56
2018-08-14T09:18:45.912Z,50.73
2018-08-14T09:21:17.757Z,50.74
2018-08-14T09:23:48.899Z,50.40
2018-08-14T09:26:21.012Z,51.58
2018-08-14T09:28:52.589Z,49.10
2018-08-14T09:31:23.414Z,51.13
2018-08-14T09:33:54.387Z,51.89
2018-08-14T09:36:31.947Z,52.15
2018-08-14T09:39:05.503Z,52.26
2018-08-14T09:41:35.966Z,52.38
2018-08-14T09:44:06.471Z,51.84
2018-08-14T09:46:37.135Z,51.95
2018-08-14T09:49:07.285Z,50.84
2018-08-14T09:51:37.930Z,49.87
2018-08-14T09:54:09.254Z,48.96
2018-08-14T09:56:39.381Z,49.84
2018-08-14T09:59:10.401Z,47.07
2018-08-14T10:01:45.660Z,46.30
2018-08-14T10:04:22.981Z,45.75
2018-08-14T10:07:02.339Z,47.76
2018-08-14T10:09:33.200Z,46.21
2018-08-14T10:12:04.720Z,46.08
2018-08-14T10:14:48.985Z,45.83
2018-08-14T10:17:19.604Z,44.83
2018-08-14T10:19:50.876Z,42.22
2018-08-14T10:22:21.279Z,42.56
2018-08-14T10:24:52.545Z,40.75
2018-08-14T10:27:23.282Z,39.34
2018-08-14T10:29:53.776Z,41.31
2018-08-14T10:32:24.438Z,42.92
2018-08-14T10:34:56.250Z,44.61
2018-08-14T10:37:26.612Z,41.76
2018-08-14T10:39:57.669Z,39.24
2018-08-14T10:42:29.837Z,39.55
2018-08-14T10:45:00.543Z,37.60
2018-08-14T10:47:31.639Z,36.65
2018-08-14T10:50:03.136Z,33.42
2018-08-14T10:52:33.784Z,36.82
2018-08-14T10:55:05.305Z,38.87
2018-08-14T10:57:36.094Z,39.76
2018-08-14T11:00:12.148Z,38.71
2018-08-14T11:02:43.066Z,36.92
2018-08-14T11:05:14.048Z,38.29
2018-08-14T11:07:46.430Z,40.23
2018-08-14T11:10:20.490Z,42.68
2018-08-14T11:12:50.790Z,45.01
2018-08-14T11:15:21.348Z,43.69
2018-08-14T11:17:52.848Z,44.16
2018-08-14T11:20:27.009Z,42.76
2018-08-14T11:22:57.486Z,42.01
2018-08-14T11:25:27.893Z,41.78
2018-08-14T11:27:58.042Z,42.49
2018-08-14T11:30:28.347Z,40.84
2018-08-14T11:32:58.808Z,40.78
2018-08-14T11:36:36.486Z,41.82
2018-08-14T11:39:09.481Z,40.47
2018-08-14T11:41:40.784Z,40.36
2018-08-14T11:44:11.827Z,40.43
2018-08-14T11:46:43.012Z,41.02
2018-08-14T11:49:14.839Z,40.40
2018-08-14T11:51:46.539Z,40.67
2018-08-14T11:54:17.114Z,40.17
2018-08-14T11:56:48.685Z,41.76
2018-08-14T11:59:19.979Z,42.21
2018-08-14T12:01:51.462Z,43.62
2018-08-14T12:04:23.766Z,42.48
2018-08-14T12:06:54.394Z,42.71
2018-08-14T12:09:25.835Z,43.14
2018-08-14T12:11:56.391Z,44.75
2018-08-14T12:14:27.491Z,45.17
2018-08-14T12:16:59.513Z,44.34
2018-08-14T12:19:31.671Z,43.44
2018-08-14T12:22:01.985Z,41.75
2018-08-14T12:24:32.210Z,41.25
2018-08-14T12:27:04.316Z,37.45
2018-08-14T12:29:35.623Z,38.54
2018-08-14T12:32:05.848Z,38.69
2018-08-14T12:34:37.649Z,39.64
2018-08-14T12:37:07.927Z,41.50
2018-08-14T12:39:38.189Z,42.86
2018-08-14T12:42:09.301Z,43.63
2018-08-14T12:44:41.249Z,44.26
2018-08-14T12:47:12.755Z,44.69
2018-08-14T12:49:43.409Z,44.85
2018-08-14T12:52:14.937Z,45.01
2018-08-14T12:54:47.832Z,44.94
2018-08-14T12:57:19.519Z,46.62
2018-08-14T12:59:51.987Z,47.02
2018-08-14T13:02:22.601Z,46.92
2018-08-14T13:04:58.073Z,45.28
2018-08-14T13:07:33.603Z,41.90
2018-08-14T13:10:05.525Z,41.01
2018-08-14T13:15:31.442Z,41.32
2018-08-14T13:18:04.153Z,41.07
2018-08-14T13:20:35.936Z,41.29
2018-08-14T13:23:08.205Z,42.34
2018-08-14T13:25:39.825Z,42.33
2018-08-14T13:28:13.935Z,42.26
2018-08-14T13:30:44.969Z,42.61
2018-08-14T13:33:15.449Z,43.49
2018-08-14T13:35:46.735Z,44.07
2018-08-14T13:38:17.046Z,44.02
2018-08-14T13:40:48.268Z,43.14
2018-08-14T13:43:19.475Z,43.29
2018-08-14T13:45:49.836Z,43.08
2018-08-14T13:50:11.470Z,40.54
2018-08-14T13:52:41.768Z,38.94
2018-08-14T13:55:14.041Z,40.69
2018-08-14T13:57:45.113Z,40.69
2018-08-14T14:00:19.755Z,41.79
2018-08-14T14:02:51.225Z,43.26
2018-08-14T14:05:21.808Z,42.49
2018-08-14T14:07:53.209Z,43.21
2018-08-14T14:10:24.490Z,43.83
2018-08-14T14:12:55.694Z,44.67
2018-08-14T14:15:28.062Z,44.34
2018-08-14T14:17:58.218Z,45.16
2018-08-14T14:20:31.160Z,45.90
2018-08-14T14:23:01.562Z,46.12
2018-08-14T14:25:33.262Z,46.79
2018-08-14T14:28:03.784Z,46.67
2018-08-14T14:30:35.812Z,46.84
2018-08-14T14:33:08.121Z,46.76
2018-08-14T14:35:40.419Z,46.78
2018-08-14T14:38:10.599Z,47.43
2018-08-14T14:40:41.680Z,46.19
2018-08-14T14:43:13.217Z,46.01
2018-08-14T14:45:43.555Z,45.69
2018-08-14T14:48:13.849Z,46.26
2018-08-14T14:50:44.583Z,46.31
2018-08-14T14:53:14.773Z,47.12
2018-08-14T14:58:14.610Z,47.56
2018-08-14T15:00:44.778Z,47.53
2018-08-14T15:03:16.119Z,48.56
2018-08-14T15:05:47.316Z,48.87
2018-08-14T15:08:17.689Z,48.33
2018-08-14T15:10:48.919Z,48.39
2018-08-14T15:13:19.549Z,47.80
2018-08-14T15:15:49.723Z,48.58
2018-08-14T15:18:20.044Z,48.33
2018-08-14T15:20:50.534Z,48.03
2018-08-14T15:23:21.999Z,47.94
2018-08-14T15:25:53.667Z,48.19
2018-08-14T15:29:27.339Z,48.22
2018-08-14T15:32:00.669Z,48.56
2018-08-14T15:34:33.146Z,49.31
2018-08-14T15:37:06.047Z,48.86
2018-08-14T15:39:36.819Z,49.58
2018-08-14T15:42:08.386Z,50.39
2018-08-14T15:44:39.481Z,50.95
2018-08-14T15:47:10.877Z,50.75
2018-08-14T15:49:41.990Z,51.37
2018-08-14T15:52:13.472Z,51.63
2018-08-14T15:54:44.936Z,50.70
2018-08-14T15:57:15.779Z,50.67
2018-08-14T15:59:46.777Z,47.47
2018-08-14T16:02:17.610Z,46.31
2018-08-14T16:04:49.452Z,44.71
2018-08-14T16:07:19.580Z,45.26
2018-08-14T16:09:50.803Z,45.29
2018-08-14T16:12:21.393Z,45.83
2018-08-14T16:14:52.884Z,46.37
2018-08-14T16:17:23.970Z,47.13
2018-08-14T16:19:54.754Z,48.02
2018-08-14T16:22:25.836Z,49.03
2018-08-14T16:24:56.994Z,49.73
2018-08-14T16:27:27.119Z,50.47
2018-08-14T16:29:58.487Z,51.28
2018-08-14T16:32:29.282Z,51.48
2018-08-14T16:34:59.417Z,52.22
2018-08-14T16:37:33.218Z,52.01
2018-08-14T16:40:04.887Z,52.58
2018-08-14T16:42:36.245Z,53.04
2018-08-14T16:45:05.736Z,53.05
2018-08-14T16:47:36.204Z,52.29
2018-08-14T16:50:07.919Z,53.22
2018-08-14T16:52:40.043Z,53.60
2018-08-14T16:55:10.810Z,53.79
2018-08-14T16:57:41.924Z,53.09
2018-08-14T17:00:18.085Z,53.74
2018-08-14T17:02:49.015Z,53.66
2018-08-14T17:05:19.178Z,54.17
2018-08-14T17:07:50.236Z,55.20
2018-08-14T17:10:22.137Z,54.66
2018-08-14T17:12:55.093Z,54.99
2018-08-14T17:15:25.917Z,55.03
2018-08-14T17:17:56.476Z,54.46
2018-08-14T17:20:25.485Z,55.50
2018-08-14T17:22:56.296Z,55.89
2018-08-14T17:25:27.523Z,55.79
2018-08-14T17:27:59.203Z,55.71
2018-08-14T17:30:29.607Z,55.46
2018-08-14T17:32:59.819Z,54.94
2018-08-14T17:35:31.010Z,55.33
2018-08-14T17:38:01.405Z,55.08
2018-08-14T17:40:32.906Z,54.49
2018-08-14T17:43:03.516Z,54.72
2018-08-14T17:45:34.301Z,54.82
2018-08-14T17:48:06.078Z,55.40
2018-08-14T17:50:36.519Z,56.41
2018-08-14T17:53:06.708Z,56.87
2018-08-14T17:55:36.876Z,57.76
2018-08-14T17:58:09.470Z,57.22
2018-08-14T18:00:41.545Z,56.59
2018-08-14T18:03:12.864Z,57.40
2018-08-14T18:05:45.750Z,57.55
2018-08-14T18:08:16.973Z,57.39
2018-08-14T18:10:47.773Z,57.76
2018-08-14T18:13:19.125Z,58.64
2018-08-14T18:15:50.068Z,57.95
2018-08-14T18:18:20.641Z,58.30
2018-08-14T18:20:50.858Z,57.95
2018-08-14T18:23:21.237Z,58.64
2018-08-14T18:25:52.517Z,57.96
2018-08-14T18:28:22.911Z,58.28
2018-08-14T18:30:53.741Z,59.14
2018-08-14T18:33:24.220Z,58.99
2018-08-14T18:35:54.460Z,59.50
2018-08-14T18:38:25.449Z,59.65
2018-08-14T18:40:57.702Z,59.99
2018-08-14T18:43:29.157Z,60.44
2018-08-14T18:45:59.609Z,60.25
2018-08-14T18:48:31.334Z,60.56
2018-08-14T18:51:03.204Z,61.56
2018-08-14T18:53:36.833Z,61.63
2018-08-14T18:56:07.131Z,61.39
2018-08-14T18:58:39.298Z,61.97
2018-08-14T19:01:10.606Z,61.79
2018-08-14T19:03:40.809Z,62.46
2018-08-14T19:06:11.258Z,62.46
2018-08-14T19:08:41.711Z,63.08
2018-08-14T19:11:13.969Z,62.78
2018-08-14T19:13:45.181Z,62.44
2018-08-14T19:16:16.315Z,63.16
2018-08-14T19:18:47.250Z,62.76
2018-08-14T19:21:18.402Z,63.46
2018-08-14T19:23:48.722Z,63.99
2018-08-14T19:26:20.341Z,64.72
2018-08-14T19:28:51.022Z,65.72
2018-08-14T19:31:21.583Z,66.20
2018-08-14T19:33:52.068Z,65.35
2018-08-14T19:36:24.973Z,66.17
2018-08-14T19:38:57.102Z,67.22
2018-08-14T19:41:28.113Z,66.88
2018-08-14T19:43:59.484Z,66.85
2018-08-14T19:46:29.644Z,67.19
2018-08-14T19:49:01.592Z,67.85
2018-08-14T19:51:34.059Z,67.61
2018-08-14T19:54:04.495Z,67.66
2018-08-14T19:56:34.759Z,67.18
2018-08-14T19:59:05.208Z,67.31
2018-08-14T20:01:36.679Z,67.45
2018-08-14T20:04:07.400Z,67.05
2018-08-14T20:06:37.775Z,66.75
2018-08-14T20:09:11.389Z,66.60
2018-08-14T20:11:41.936Z,67.63
2018-08-14T20:14:12.261Z,67.59
2018-08-14T20:16:44.584Z,67.42
2018-08-14T20:19:16.839Z,67.03
2018-08-14T20:21:47.513Z,67.28
2018-08-14T20:24:18.818Z,67.30
2018-08-14T20:26:51.300Z,68.02
2018-08-14T20:29:23.723Z,68.33
2018-08-14T20:31:55.178Z,68.39
2018-08-14T20:34:25.646Z,68.65
2018-08-14T20:36:57.348Z,68.65
2018-08-14T20:39:27.664Z,69.11
2018-08-14T20:42:04.441Z,68.97
2018-08-14T20:44:34.629Z,68.79
2018-08-14T20:47:05.420Z,70.09
2018-08-14T20:49:37.129Z,69.46
2018-08-14T20:52:08.244Z,70.04
2018-08-14T20:54:38.661Z,70.37
2018-08-14T20:57:08.916Z,70.65
2018-08-14T20:59:39.780Z,70.72
2018-08-14T21:02:11.018Z,70.51
2018-08-14T21:04:42.268Z,71.09
2018-08-14T21:07:15.094Z,71.24
2018-08-14T21:09:46.413Z,71.30
2018-08-14T21:12:20.853Z,71.23
2018-08-14T21:14:51.121Z,71.35
2018-08-14T21:17:21.361Z,71.45
2018-08-14T21:19:53.052Z,71.69
2018-08-14T21:22:23.720Z,71.79
2018-08-14T21:24:55.311Z,71.81
2018-08-14T21:27:27.013Z,72.87
2018-08-14T21:29:59.220Z,72.13
2018-08-14T21:32:31.645Z,72.47
2018-08-14T21:35:08.106Z,72.01
2018-08-14T21:37:39.840Z,72.73
2018-08-14T21:40:15.450Z,72.59
2018-08-14T21:42:46.959Z,72.19
2018-08-14T21:45:19.175Z,72.81
2018-08-14T21:47:50.256Z,72.06
2018-08-14T21:50:20.426Z,72.69
2018-08-14T21:52:52.033Z,71.81
2018-08-14T21:55:22.554Z,71.70
2018-08-14T21:57:53.114Z,72.55
2018-08-14T22:01:30.104Z,73.10
2018-08-14T22:04:00.225Z,72.99
2018-08-14T22:06:31.349Z,73.37
2018-08-14T22:09:02.340Z,71.76
2018-08-14T22:11:32.564Z,72.74
2018-08-14T22:14:02.816Z,73.63
2018-08-14T22:16:33.682Z,73.90
2018-08-14T22:19:05.320Z,73.63
2018-08-14T22:21:37.884Z,72.61
2018-08-14T22:24:08.396Z,73.84
2018-08-14T22:26:38.809Z,74.26
2018-08-14T22:29:10.471Z,73.73
2018-08-14T22:31:41.184Z,73.35
2018-08-14T22:34:12.772Z,73.47
2018-08-14T22:36:44.907Z,74.37
2018-08-14T22:39:17.117Z,73.51
2018-08-14T22:41:48.128Z,73.53
2018-08-14T22:44:19.139Z,73.08
2018-08-14T22:46:50.162Z,72.82
2018-08-14T22:49:21.482Z,74.15
2018-08-14T22:51:51.780Z,74.53
2018-08-14T22:54:23.277Z,75.14
2018-08-14T22:56:53.484Z,74.64
2018-08-14T22:59:23.762Z,74.97
2018-08-14T23:01:54.524Z,74.58
2018-08-14T23:04:25.744Z,74.70
2018-08-14T23:06:57.356Z,75.09
2018-08-14T23:09:28.200Z,76.09
2018-08-14T23:11:58.614Z,76.84
2018-08-14T23:14:30.132Z,77.29
2018-08-14T23:17:00.385Z,77.21
2018-08-14T23:19:32.198Z,77.54
2018-08-14T23:22:03.583Z,77.00
2018-08-14T23:24:34.374Z,76.42
2018-08-14T23:27:05.741Z,77.10
2018-08-14T23:29:36.647Z,76.81
2018-08-14T23:32:08.056Z,77.53
2018-08-14T23:34:39.272Z,77.30
2018-08-14T23:37:10.745Z,77.12
2018-08-14T23:39:42.224Z,77.50
2018-08-14T23:42:12.839Z,77.45
2018-08-14T23:44:43.001Z,76.99
2018-08-14T23:47:15.945Z,77.50
2018-08-14T23:49:47.683Z,77.59
2018-08-14T23:52:17.979Z,76.91
2018-08-14T23:54:48.108Z,77.50
2018-08-14T23:57:19.599Z,77.41
2018-08-14T23:59:50.542Z,77.60
